createdAt,value
2019-03-18T00:00:56.508Z,1007.72
2019-03-18T00:01:56.422Z,1007.71
2019-03-18T00:02:56.394Z,1007.65
2019-03-18T00:03:56.378Z,1007.69
2019-03-18T00:04:56.382Z,1007.66
2019-03-18T00:05:56.439Z,1007.71
2019-03-18T00:06:56.351Z,1007.73
2019-03-18T00:07:56.342Z,1007.79
2019-03-18T00:08:56.329Z,1007.80
2019-03-18T00:09:56.323Z,1007.81
2019-03-18T00:10:56.315Z,1007.86
2019-03-18T00:11:56.388Z,1007.81
2019-03-18T00:12:56.291Z,1007.76
2019-03-18T00:13:56.277Z,1007.75
2019-03-18T00:15:01.195Z,1007.74
2019-03-18T00:15:57.258Z,1007.83
2019-03-18T00:16:56.249Z,1007.77
2019-03-18T00:17:56.316Z,1007.78
2019-03-18T00:18:56.210Z,1007.77
2019-03-18T00:19:56.205Z,1007.76
2019-03-18T00:20:56.205Z,1007.81
2019-03-18T00:21:56.199Z,1007.81
2019-03-18T00:22:56.215Z,1007.92
2019-03-18T00:23:56.135Z,1007.88
2019-03-18T00:24:56.156Z,1007.86
2019-03-18T00:25:56.104Z,1007.93
2019-03-18T00:26:56.134Z,1007.96
2019-03-18T00:27:56.096Z,1008.06
2019-03-18T00:28:56.118Z,1007.96
2019-03-18T00:29:56.106Z,1007.99
2019-03-18T00:30:56.105Z,1008.01
2019-03-18T00:31:56.070Z,1007.99
2019-03-18T00:32:56.050Z,1008.08
2019-03-18T00:33:56.135Z,1008.00
2019-03-18T00:34:56.132Z,1008.00
2019-03-18T00:35:56.134Z,1008.00
2019-03-18T00:36:56.042Z,1008.06
2019-03-18T00:37:56.025Z,1008.08
2019-03-18T00:38:55.992Z,1008.12
2019-03-18T00:39:55.983Z,1008.11
2019-03-18T00:40:55.952Z,1008.08
2019-03-18T00:41:56.037Z,1008.03
2019-03-18T00:42:55.957Z,1008.09
2019-03-18T00:43:55.957Z,1008.02
2019-03-18T00:44:55.942Z,1007.98
2019-03-18T00:45:55.938Z,1008.07
2019-03-18T00:46:55.917Z,1008.05
2019-03-18T00:47:56.111Z,1008.08
2019-03-18T00:48:55.906Z,1008.11
2019-03-18T00:49:55.874Z,1008.05
2019-03-18T00:50:55.906Z,1008.10
2019-03-18T00:51:55.862Z,1008.11
2019-03-18T00:52:55.843Z,1008.14
2019-03-18T00:53:55.948Z,1008.10
2019-03-18T00:54:55.842Z,1008.08
2019-03-18T00:55:56.762Z,1008.15
2019-03-18T00:56:55.817Z,1008.11
2019-03-18T00:57:56.764Z,1008.08
2019-03-18T00:58:55.817Z,1008.09
2019-03-18T00:59:55.865Z,1008.08
2019-03-18T01:00:55.855Z,1008.14
2019-03-18T01:01:55.777Z,1008.03
2019-03-18T01:02:55.744Z,1008.05
2019-03-18T01:03:55.735Z,1008.11
2019-03-18T01:04:55.803Z,1008.06
2019-03-18T01:05:55.710Z,1008.06
2019-03-18T01:06:55.711Z,1007.98
2019-03-18T01:07:55.694Z,1008.06
2019-03-18T01:08:55.681Z,1008.01
2019-03-18T01:09:55.669Z,1008.03
2019-03-18T01:10:55.750Z,1008.03
2019-03-18T01:11:55.733Z,1008.11
2019-03-18T01:12:55.647Z,1008.08
2019-03-18T01:13:55.631Z,1008.17
2019-03-18T01:14:55.624Z,1008.11
2019-03-18T01:15:55.597Z,1008.09
2019-03-18T01:16:55.682Z,1008.11
2019-03-18T01:17:55.590Z,1008.15
2019-03-18T01:18:55.559Z,1008.17
2019-03-18T01:19:55.567Z,1008.19
2019-03-18T01:20:55.631Z,1008.20
2019-03-18T01:21:55.559Z,1008.23
2019-03-18T01:22:55.613Z,1008.22
2019-03-18T01:23:55.516Z,1008.19
2019-03-18T01:24:55.499Z,1008.20
2019-03-18T01:25:55.488Z,1008.21
2019-03-18T01:26:55.442Z,1008.20
2019-03-18T01:27:55.565Z,1008.15
2019-03-18T01:28:56.268Z,1008.18
2019-03-18T01:29:55.460Z,1008.22
2019-03-18T01:30:55.504Z,1008.17
2019-03-18T01:31:55.420Z,1008.15
2019-03-18T01:32:55.372Z,1008.18
2019-03-18T01:33:55.526Z,1008.25
2019-03-18T01:34:55.444Z,1008.20
2019-03-18T01:35:55.347Z,1008.30
2019-03-18T01:36:55.367Z,1008.23
2019-03-18T01:37:55.353Z,1008.15
2019-03-18T01:38:55.335Z,1008.22
2019-03-18T01:39:55.427Z,1008.27
2019-03-18T01:40:55.337Z,1008.29
2019-03-18T01:41:55.326Z,1008.32
2019-03-18T01:42:55.303Z,1008.27
2019-03-18T01:43:55.291Z,1008.28
2019-03-18T01:44:55.383Z,1008.28
2019-03-18T01:45:55.271Z,1008.24
2019-03-18T01:46:55.347Z,1008.21
2019-03-18T01:47:55.239Z,1008.19
2019-03-18T01:48:55.244Z,1008.24
2019-03-18T01:49:55.313Z,1008.26
2019-03-18T01:50:55.234Z,1008.24
2019-03-18T01:51:55.229Z,1008.29
2019-03-18T01:52:55.301Z,1008.28
2019-03-18T01:53:55.193Z,1008.24
2019-03-18T01:54:55.219Z,1008.28
2019-03-18T01:55:55.157Z,1008.30
2019-03-18T01:56:55.143Z,1008.36
2019-03-18T01:57:55.277Z,1008.28
2019-03-18T01:58:55.199Z,1008.32
2019-03-18T01:59:55.106Z,1008.26
2019-03-18T02:00:55.110Z,1008.28
2019-03-18T02:01:55.055Z,1008.21
2019-03-18T02:02:55.068Z,1008.19
2019-03-18T02:03:55.047Z,1008.24
2019-03-18T02:04:55.119Z,1008.28
2019-03-18T02:05:55.054Z,1008.18
2019-03-18T02:06:55.043Z,1008.15
2019-03-18T02:07:55.023Z,1008.26
2019-03-18T02:08:55.017Z,1008.20
2019-03-18T02:09:55.012Z,1008.22
2019-03-18T02:10:55.203Z,1008.21
2019-03-18T02:11:54.982Z,1008.17
2019-03-18T02:12:54.976Z,1008.22
2019-03-18T02:13:55.086Z,1008.22
2019-03-18T02:14:54.946Z,1008.20
2019-03-18T02:15:54.954Z,1008.22
2019-03-18T02:16:55.034Z,1008.18
2019-03-18T02:17:54.927Z,1008.18
2019-03-18T02:18:54.922Z,1008.15
2019-03-18T02:19:54.902Z,1008.22
2019-03-18T02:20:54.872Z,1008.11
2019-03-18T02:21:54.869Z,1008.25
2019-03-18T02:22:54.947Z,1008.19
2019-03-18T02:23:54.848Z,1008.19
2019-03-18T02:24:54.837Z,1008.20
2019-03-18T02:25:54.914Z,1008.19
2019-03-18T02:26:55.771Z,1008.21
2019-03-18T02:27:54.803Z,1008.26
2019-03-18T02:28:54.801Z,1008.28
2019-03-18T02:29:54.863Z,1008.29
2019-03-18T02:30:54.778Z,1008.35
2019-03-18T02:31:54.763Z,1008.32
2019-03-18T02:32:54.759Z,1008.36
2019-03-18T02:33:54.844Z,1008.27
2019-03-18T02:34:55.280Z,1008.28
2019-03-18T02:35:54.802Z,1008.35
2019-03-18T02:36:54.831Z,1008.37
2019-03-18T02:37:54.789Z,1008.40
2019-03-18T02:38:54.690Z,1008.43
2019-03-18T02:39:54.676Z,1008.40
2019-03-18T02:40:54.776Z,1008.43
2019-03-18T02:41:54.658Z,1008.41
2019-03-18T02:42:54.650Z,1008.41
2019-03-18T02:43:54.614Z,1008.40
2019-03-18T02:44:54.597Z,1008.39
2019-03-18T02:46:09.478Z,1008.39
2019-03-18T02:46:55.588Z,1008.43
2019-03-18T02:47:54.589Z,1008.45
2019-03-18T02:48:54.576Z,1008.46
2019-03-18T02:49:54.569Z,1008.48
2019-03-18T02:50:54.699Z,1008.53
2019-03-18T02:51:54.645Z,1008.43
2019-03-18T02:52:54.516Z,1008.51
2019-03-18T02:53:54.568Z,1008.51
2019-03-18T02:54:54.514Z,1008.61
2019-03-18T02:55:54.488Z,1008.62
2019-03-18T02:56:54.515Z,1008.69
2019-03-18T02:57:54.558Z,1008.78
2019-03-18T02:58:54.441Z,1008.76
2019-03-18T02:59:54.462Z,1008.81
2019-03-18T03:00:54.450Z,1008.90
2019-03-18T03:01:54.443Z,1008.89
2019-03-18T03:02:54.433Z,1008.91
2019-03-18T03:03:54.508Z,1008.91
2019-03-18T03:04:54.391Z,1008.90
2019-03-18T03:05:54.383Z,1008.97
2019-03-18T03:06:54.403Z,1009.06
2019-03-18T03:07:54.389Z,1008.97
2019-03-18T03:08:54.353Z,1008.98
2019-03-18T03:09:54.566Z,1009.04
2019-03-18T03:10:54.424Z,1008.98
2019-03-18T03:11:54.316Z,1008.90
2019-03-18T03:12:54.342Z,1008.91
2019-03-18T03:13:54.309Z,1008.89
2019-03-18T03:14:54.479Z,1008.97
2019-03-18T03:15:54.278Z,1008.92
2019-03-18T03:16:54.241Z,1008.97
2019-03-18T03:17:54.346Z,1008.87
2019-03-18T03:18:54.256Z,1008.88
2019-03-18T03:19:54.220Z,1008.84
2019-03-18T03:20:54.358Z,1008.90
2019-03-18T03:21:54.220Z,1008.87
2019-03-18T03:22:54.227Z,1009.00
2019-03-18T03:23:54.291Z,1009.01
2019-03-18T03:24:54.193Z,1008.96
2019-03-18T03:25:54.302Z,1008.98
2019-03-18T03:26:54.170Z,1008.98
2019-03-18T03:27:54.140Z,1008.94
2019-03-18T03:28:54.151Z,1008.92
2019-03-18T03:29:54.229Z,1008.94
2019-03-18T03:30:54.146Z,1008.98
2019-03-18T03:31:54.219Z,1009.01
2019-03-18T03:32:54.101Z,1009.05
2019-03-18T03:33:54.142Z,1009.13
2019-03-18T03:34:54.080Z,1009.02
2019-03-18T03:35:54.060Z,1008.99
2019-03-18T03:36:54.530Z,1008.96
2019-03-18T03:37:54.017Z,1008.90
2019-03-18T03:38:54.030Z,1008.83
2019-03-18T03:39:53.993Z,1008.92
2019-03-18T03:40:54.109Z,1008.97
2019-03-18T03:41:53.997Z,1008.99
2019-03-18T03:42:54.162Z,1008.98
2019-03-18T03:43:54.004Z,1008.99
2019-03-18T03:44:53.943Z,1009.02
2019-03-18T03:45:53.906Z,1008.93
2019-03-18T03:46:53.939Z,1008.90
2019-03-18T03:47:53.924Z,1009.01
2019-03-18T03:48:53.952Z,1009.00
2019-03-18T03:49:54.788Z,1009.03
2019-03-18T03:50:53.899Z,1008.99
2019-03-18T03:51:53.878Z,1009.00
2019-03-18T03:52:53.976Z,1009.09
2019-03-18T03:53:53.983Z,1009.05
2019-03-18T03:54:53.848Z,1009.10
2019-03-18T03:55:53.831Z,1009.08
2019-03-18T03:56:53.924Z,1009.18
2019-03-18T03:57:54.018Z,1009.18
2019-03-18T03:58:53.908Z,1009.18
2019-03-18T03:59:53.837Z,1009.19
2019-03-18T04:00:53.775Z,1009.18
2019-03-18T04:01:53.763Z,1009.21
2019-03-18T04:02:53.773Z,1009.23
2019-03-18T04:03:53.752Z,1009.23
2019-03-18T04:04:53.813Z,1009.24
2019-03-18T04:05:53.734Z,1009.26
2019-03-18T04:06:53.698Z,1009.29
2019-03-18T04:07:53.700Z,1009.25
2019-03-18T04:08:53.693Z,1009.27
2019-03-18T04:09:53.961Z,1009.28
2019-03-18T04:10:53.667Z,1009.32
2019-03-18T04:11:53.639Z,1009.34
2019-03-18T04:12:53.655Z,1009.29
2019-03-18T04:13:54.292Z,1009.32
2019-03-18T04:14:53.638Z,1009.28
2019-03-18T04:15:53.681Z,1009.29
2019-03-18T04:17:01.556Z,1009.33
2019-03-18T04:17:54.599Z,1009.36
2019-03-18T04:18:53.569Z,1009.32
2019-03-18T04:19:53.569Z,1009.42
2019-03-18T04:20:53.655Z,1009.40
2019-03-18T04:21:53.563Z,1009.38
2019-03-18T04:22:53.539Z,1009.38
2019-03-18T04:23:53.542Z,1009.46
2019-03-18T04:24:53.512Z,1009.47
2019-03-18T04:25:53.490Z,1009.38
2019-03-18T04:26:53.581Z,1009.42
2019-03-18T04:27:53.591Z,1009.44
2019-03-18T04:28:53.463Z,1009.49
2019-03-18T04:29:53.498Z,1009.51
2019-03-18T04:30:53.461Z,1009.48
2019-03-18T04:31:54.288Z,1009.50
2019-03-18T04:32:53.464Z,1009.46
2019-03-18T04:33:53.525Z,1009.55
2019-03-18T04:34:53.399Z,1009.56
2019-03-18T04:35:53.387Z,1009.55
2019-03-18T04:36:53.980Z,1009.57
2019-03-18T04:37:53.371Z,1009.58
2019-03-18T04:38:53.369Z,1009.57
2019-03-18T04:39:53.425Z,1009.63
2019-03-18T04:40:53.325Z,1009.58
2019-03-18T04:41:53.326Z,1009.64
2019-03-18T04:42:53.332Z,1009.62
2019-03-18T04:43:53.325Z,1009.68
2019-03-18T04:44:53.359Z,1009.68
2019-03-18T04:45:53.439Z,1009.66
2019-03-18T04:46:53.244Z,1009.71
2019-03-18T04:47:53.241Z,1009.76
2019-03-18T04:48:53.356Z,1009.69
2019-03-18T04:49:53.323Z,1009.66
2019-03-18T04:50:53.294Z,1009.64
2019-03-18T04:51:53.219Z,1009.60
2019-03-18T04:52:53.290Z,1009.61
2019-03-18T04:53:53.184Z,1009.65
2019-03-18T04:54:53.228Z,1009.69
2019-03-18T04:55:53.209Z,1009.78
2019-03-18T04:56:53.204Z,1009.77
2019-03-18T04:57:53.163Z,1009.75
2019-03-18T04:58:53.198Z,1009.83
2019-03-18T04:59:53.121Z,1009.88
2019-03-18T05:00:53.092Z,1009.77
2019-03-18T05:01:53.112Z,1009.81
2019-03-18T05:02:53.119Z,1009.81
2019-03-18T05:03:53.092Z,1009.89
2019-03-18T05:04:53.080Z,1009.84
2019-03-18T05:05:53.046Z,1009.85
2019-03-18T05:06:53.049Z,1009.82
2019-03-18T05:07:53.046Z,1009.93
2019-03-18T05:08:53.064Z,1009.93
2019-03-18T05:09:52.999Z,1009.95
2019-03-18T05:10:53.012Z,1009.95
2019-03-18T05:11:52.970Z,1009.93
2019-03-18T05:12:53.078Z,1010.00
2019-03-18T05:13:53.071Z,1010.07
2019-03-18T05:14:53.010Z,1010.02
2019-03-18T05:15:52.966Z,1010.02
2019-03-18T05:16:52.957Z,1010.11
2019-03-18T05:17:52.902Z,1010.07
2019-03-18T05:18:52.928Z,1010.11
2019-03-18T05:19:52.894Z,1010.12
2019-03-18T05:20:52.993Z,1010.18
2019-03-18T05:21:52.873Z,1010.16
2019-03-18T05:22:52.834Z,1010.25
2019-03-18T05:23:52.867Z,1010.21
2019-03-18T05:24:52.847Z,1010.26
2019-03-18T05:25:52.826Z,1010.29
2019-03-18T05:26:52.915Z,1010.24
2019-03-18T05:27:52.813Z,1010.38
2019-03-18T05:28:52.753Z,1010.37
2019-03-18T05:29:52.815Z,1010.38
2019-03-18T05:30:52.793Z,1010.49
2019-03-18T05:31:52.843Z,1010.49
2019-03-18T05:32:52.762Z,1010.49
2019-03-18T05:33:52.716Z,1010.47
2019-03-18T05:34:52.724Z,1010.52
2019-03-18T05:35:52.737Z,1010.51
2019-03-18T05:36:52.700Z,1010.55
2019-03-18T05:37:52.789Z,1010.61
2019-03-18T05:38:52.651Z,1010.62
2019-03-18T05:39:52.865Z,1010.60
2019-03-18T05:40:52.753Z,1010.65
2019-03-18T05:41:52.661Z,1010.69
2019-03-18T05:42:52.644Z,1010.72
2019-03-18T05:43:52.698Z,1010.73
2019-03-18T05:44:52.599Z,1010.71
2019-03-18T05:45:52.609Z,1010.69
2019-03-18T05:46:52.589Z,1010.74
2019-03-18T05:47:52.579Z,1010.71
2019-03-18T05:48:52.600Z,1010.72
2019-03-18T05:49:54.028Z,1010.76
2019-03-18T05:50:52.558Z,1010.76
2019-03-18T05:51:52.511Z,1010.80
2019-03-18T05:52:52.700Z,1010.79
2019-03-18T05:53:52.522Z,1010.69
2019-03-18T05:54:52.521Z,1010.86
2019-03-18T05:55:52.599Z,1010.81
2019-03-18T05:56:52.514Z,1010.81
2019-03-18T05:57:52.489Z,1010.82
2019-03-18T05:58:52.503Z,1010.75
2019-03-18T05:59:52.433Z,1010.90
2019-03-18T06:00:52.439Z,1010.81
2019-03-18T06:01:52.490Z,1010.83
2019-03-18T06:02:52.410Z,1010.82
2019-03-18T06:03:52.378Z,1010.85
2019-03-18T06:04:52.384Z,1010.88
2019-03-18T06:05:52.371Z,1010.87
2019-03-18T06:06:52.435Z,1010.89
2019-03-18T06:07:52.351Z,1010.94
2019-03-18T06:08:52.344Z,1010.93
2019-03-18T06:09:52.321Z,1010.87
2019-03-18T06:10:52.300Z,1010.95
2019-03-18T06:11:52.421Z,1011.01
2019-03-18T06:12:52.300Z,1010.95
2019-03-18T06:13:52.277Z,1010.97
2019-03-18T06:14:52.378Z,1011.03
2019-03-18T06:15:52.267Z,1010.99
2019-03-18T06:16:52.309Z,1011.02
2019-03-18T06:17:53.153Z,1011.00
2019-03-18T06:18:52.272Z,1011.09
2019-03-18T06:19:52.250Z,1011.08
2019-03-18T06:20:52.199Z,1011.10
2019-03-18T06:21:52.210Z,1011.13
2019-03-18T06:22:52.293Z,1011.20
2019-03-18T06:23:52.197Z,1011.16
2019-03-18T06:24:52.168Z,1011.18
2019-03-18T06:25:52.184Z,1011.18
2019-03-18T06:26:52.149Z,1011.28
2019-03-18T06:27:52.804Z,1011.19
2019-03-18T06:28:52.201Z,1011.28
2019-03-18T06:29:52.191Z,1011.35
2019-03-18T06:30:52.119Z,1011.33
2019-03-18T06:31:52.096Z,1011.44
2019-03-18T06:32:52.081Z,1011.35
2019-03-18T06:33:52.075Z,1011.29
2019-03-18T06:34:52.117Z,1011.33
2019-03-18T06:35:52.269Z,1011.31
2019-03-18T06:36:52.098Z,1011.26
2019-03-18T06:37:52.047Z,1011.25
2019-03-18T06:38:52.107Z,1011.32
2019-03-18T06:39:51.981Z,1011.31
2019-03-18T06:40:51.990Z,1011.39
2019-03-18T06:41:51.958Z,1011.33
2019-03-18T06:42:51.977Z,1011.38
2019-03-18T06:43:51.956Z,1011.38
2019-03-18T06:44:51.970Z,1011.53
2019-03-18T06:45:51.928Z,1011.59
2019-03-18T06:46:51.945Z,1011.71
2019-03-18T06:48:03.775Z,1011.71
2019-03-18T06:48:52.903Z,1011.72
2019-03-18T06:49:51.891Z,1011.63
2019-03-18T06:50:51.977Z,1011.56
2019-03-18T06:51:51.950Z,1011.61
2019-03-18T06:52:51.904Z,1011.66
2019-03-18T06:53:51.838Z,1011.66
2019-03-18T06:54:51.842Z,1011.63
2019-03-18T06:55:51.834Z,1011.65
2019-03-18T06:56:51.823Z,1011.67
2019-03-18T06:57:52.017Z,1011.71
2019-03-18T06:58:51.794Z,1011.69
2019-03-18T06:59:51.817Z,1011.63
2019-03-18T07:00:51.813Z,1011.65
2019-03-18T07:01:51.770Z,1011.71
2019-03-18T07:02:51.748Z,1011.63
2019-03-18T07:03:51.743Z,1011.67
2019-03-18T07:04:51.727Z,1011.74
2019-03-18T07:05:51.800Z,1011.72
2019-03-18T07:06:51.699Z,1011.67
2019-03-18T07:07:51.740Z,1011.70
2019-03-18T07:08:51.713Z,1011.67
2019-03-18T07:09:51.690Z,1011.72
2019-03-18T07:10:53.431Z,1011.74
2019-03-18T07:11:51.786Z,1011.75
2019-03-18T07:12:51.636Z,1011.81
2019-03-18T07:13:51.639Z,1011.80
2019-03-18T07:14:51.624Z,1011.76
2019-03-18T07:15:51.624Z,1011.82
2019-03-18T07:16:51.678Z,1011.81
2019-03-18T07:17:51.614Z,1011.79
2019-03-18T07:18:51.638Z,1011.78
2019-03-18T07:19:51.591Z,1011.80
2019-03-18T07:20:51.567Z,1011.86
2019-03-18T07:21:51.553Z,1011.82
2019-03-18T07:22:51.532Z,1011.82
2019-03-18T07:23:51.563Z,1011.85
2019-03-18T07:24:51.502Z,1011.87
2019-03-18T07:25:51.500Z,1011.91
2019-03-18T07:26:51.522Z,1011.99
2019-03-18T07:27:51.471Z,1011.91
2019-03-18T07:28:52.311Z,1011.93
2019-03-18T07:29:51.486Z,1011.90
2019-03-18T07:30:51.534Z,1011.97
2019-03-18T07:31:51.456Z,1011.98
2019-03-18T07:32:51.426Z,1012.00
2019-03-18T07:33:51.412Z,1012.07
2019-03-18T07:34:51.531Z,1012.01
2019-03-18T07:35:51.402Z,1012.13
2019-03-18T07:36:51.404Z,1012.16
2019-03-18T07:37:51.391Z,1012.08
2019-03-18T07:38:51.341Z,1012.12
2019-03-18T07:39:51.332Z,1012.14
2019-03-18T07:40:51.368Z,1012.09
2019-03-18T07:41:51.310Z,1012.19
2019-03-18T07:42:51.302Z,1012.14
2019-03-18T07:43:51.305Z,1012.19
2019-03-18T07:44:51.292Z,1012.25
2019-03-18T07:45:51.314Z,1012.16
2019-03-18T07:46:51.314Z,1012.08
2019-03-18T07:47:51.440Z,1012.28
2019-03-18T07:48:51.233Z,1012.23
2019-03-18T07:49:51.216Z,1012.20
2019-03-18T07:50:51.360Z,1012.24
2019-03-18T07:51:51.224Z,1012.31
2019-03-18T07:52:51.229Z,1012.27
2019-03-18T07:53:51.270Z,1012.31
2019-03-18T07:54:51.260Z,1012.31
2019-03-18T07:55:51.161Z,1012.33
2019-03-18T07:56:51.814Z,1012.41
2019-03-18T07:57:51.155Z,1012.43
2019-03-18T07:58:51.239Z,1012.37
2019-03-18T07:59:51.150Z,1012.50
2019-03-18T08:00:51.253Z,1012.55
2019-03-18T08:01:51.111Z,1012.64
2019-03-18T08:02:51.084Z,1012.49
2019-03-18T08:03:51.076Z,1012.51
2019-03-18T08:04:51.083Z,1012.64
2019-03-18T08:05:51.032Z,1012.67
2019-03-18T08:06:51.167Z,1012.76
2019-03-18T08:07:51.045Z,1012.69
2019-03-18T08:08:53.432Z,1012.68
2019-03-18T08:09:51.029Z,1012.71
2019-03-18T08:10:50.983Z,1012.62
2019-03-18T08:11:50.988Z,1012.65
2019-03-18T08:12:51.028Z,1012.76
2019-03-18T08:13:50.963Z,1012.74
2019-03-18T08:14:51.091Z,1012.76
2019-03-18T08:15:50.949Z,1012.82
2019-03-18T08:16:50.943Z,1012.75
2019-03-18T08:17:50.939Z,1012.82
2019-03-18T08:18:50.991Z,1012.84
2019-03-18T08:19:50.885Z,1012.86
2019-03-18T08:20:50.904Z,1012.94
2019-03-18T08:21:50.907Z,1012.92
2019-03-18T08:22:51.027Z,1012.93
2019-03-18T08:23:50.913Z,1012.95
2019-03-18T08:24:50.852Z,1012.84
2019-03-18T08:25:50.844Z,1012.83
2019-03-18T08:26:50.842Z,1012.93
2019-03-18T08:27:50.829Z,1012.93
2019-03-18T08:28:50.789Z,1012.97
2019-03-18T08:29:50.866Z,1012.97
2019-03-18T08:30:50.918Z,1012.97
2019-03-18T08:31:50.747Z,1012.94
2019-03-18T08:32:50.764Z,1013.01
2019-03-18T08:33:50.751Z,1012.96
2019-03-18T08:34:50.714Z,1012.98
2019-03-18T08:35:50.840Z,1012.97
2019-03-18T08:36:50.703Z,1012.94
2019-03-18T08:37:50.688Z,1013.01
2019-03-18T08:38:50.700Z,1013.09
2019-03-18T08:39:50.690Z,1012.97
2019-03-18T08:40:50.759Z,1013.08
2019-03-18T08:41:50.728Z,1013.07
2019-03-18T08:42:50.642Z,1013.13
2019-03-18T08:43:50.633Z,1013.12
2019-03-18T08:44:50.632Z,1013.09
2019-03-18T08:45:50.713Z,1013.07
2019-03-18T08:46:50.631Z,1013.09
2019-03-18T08:47:50.701Z,1013.10
2019-03-18T08:48:55.707Z,1013.13
2019-03-18T08:49:51.662Z,1013.14
2019-03-18T08:50:50.578Z,1013.14
2019-03-18T08:51:50.753Z,1013.19
2019-03-18T08:52:50.531Z,1013.15
2019-03-18T08:53:50.572Z,1013.18
2019-03-18T08:54:50.611Z,1013.23
2019-03-18T08:55:50.520Z,1013.25
2019-03-18T08:56:50.496Z,1013.29
2019-03-18T08:57:50.513Z,1013.21
2019-03-18T08:58:50.465Z,1013.21
2019-03-18T08:59:50.511Z,1013.19
2019-03-18T09:00:50.482Z,1013.26
2019-03-18T09:01:50.425Z,1013.29
2019-03-18T09:02:50.498Z,1013.24
2019-03-18T09:03:50.439Z,1013.30
2019-03-18T09:04:50.397Z,1013.31
2019-03-18T09:05:50.459Z,1013.28
2019-03-18T09:06:50.375Z,1013.32
2019-03-18T09:07:50.361Z,1013.38
2019-03-18T09:08:50.370Z,1013.37
2019-03-18T09:09:50.377Z,1013.36
2019-03-18T09:10:50.336Z,1013.32
2019-03-18T09:11:50.372Z,1013.29
2019-03-18T09:12:50.303Z,1013.38
2019-03-18T09:13:50.475Z,1013.44
2019-03-18T09:14:50.299Z,1013.47
2019-03-18T09:15:50.292Z,1013.35
2019-03-18T09:16:50.372Z,1013.48
2019-03-18T09:17:50.324Z,1013.42
2019-03-18T09:18:50.385Z,1013.49
2019-03-18T09:19:50.244Z,1013.41
2019-03-18T09:20:50.224Z,1013.46
2019-03-18T09:21:50.235Z,1013.48
2019-03-18T09:22:50.223Z,1013.49
2019-03-18T09:23:50.206Z,1013.48
2019-03-18T09:24:50.237Z,1013.46
2019-03-18T09:25:50.169Z,1013.48
2019-03-18T09:27:01.910Z,1013.42
2019-03-18T09:27:51.215Z,1013.46
2019-03-18T09:28:50.146Z,1013.57
2019-03-18T09:29:50.126Z,1013.50
2019-03-18T09:30:50.188Z,1013.49
2019-03-18T09:31:50.098Z,1013.58
2019-03-18T09:32:50.086Z,1013.58
2019-03-18T09:33:50.108Z,1013.45
2019-03-18T09:34:50.088Z,1013.56
2019-03-18T09:35:50.109Z,1013.50
2019-03-18T09:36:50.048Z,1013.48
2019-03-18T09:37:50.174Z,1013.49
2019-03-18T09:38:50.026Z,1013.50
2019-03-18T09:39:50.041Z,1013.49
2019-03-18T09:40:50.139Z,1013.59
2019-03-18T09:41:50.062Z,1013.58
2019-03-18T09:42:50.110Z,1013.55
2019-03-18T09:43:49.983Z,1013.54
2019-03-18T09:44:49.967Z,1013.58
2019-03-18T09:45:49.973Z,1013.55
2019-03-18T09:46:49.932Z,1013.56
2019-03-18T09:47:49.933Z,1013.59
2019-03-18T09:48:49.951Z,1013.57
2019-03-18T09:49:49.915Z,1013.59
2019-03-18T09:50:50.832Z,1013.64
2019-03-18T09:51:49.892Z,1013.65
2019-03-18T09:52:49.870Z,1013.66
2019-03-18T09:53:49.910Z,1013.59
2019-03-18T09:54:49.894Z,1013.63
2019-03-18T09:55:49.940Z,1013.66
2019-03-18T09:56:49.835Z,1013.72
2019-03-18T09:57:49.846Z,1013.69
2019-03-18T09:58:49.801Z,1013.72
2019-03-18T09:59:49.841Z,1013.72
2019-03-18T10:00:49.771Z,1013.70
2019-03-18T10:01:49.770Z,1013.75
2019-03-18T10:02:49.762Z,1013.71
2019-03-18T10:03:49.783Z,1013.73
2019-03-18T10:04:49.776Z,1013.63
2019-03-18T10:05:49.797Z,1013.82
2019-03-18T10:06:49.866Z,1013.77
2019-03-18T10:07:49.713Z,1013.72
2019-03-18T10:08:49.706Z,1013.74
2019-03-18T10:09:49.727Z,1013.73
2019-03-18T10:10:49.754Z,1013.68
2019-03-18T10:11:49.696Z,1013.73
2019-03-18T10:12:49.674Z,1013.76
2019-03-18T10:13:49.639Z,1013.74
2019-03-18T10:14:49.682Z,1013.74
2019-03-18T10:15:49.590Z,1013.79
2019-03-18T10:16:49.611Z,1013.83
2019-03-18T10:17:49.686Z,1013.85
2019-03-18T10:18:49.584Z,1013.91
2019-03-18T10:19:49.552Z,1013.87
2019-03-18T10:20:49.629Z,1013.86
2019-03-18T10:21:49.545Z,1013.95
2019-03-18T10:22:49.532Z,1013.92
2019-03-18T10:23:49.617Z,1013.95
2019-03-18T10:24:49.503Z,1014.04
2019-03-18T10:25:49.505Z,1014.06
2019-03-18T10:26:49.525Z,1013.91
2019-03-18T10:27:49.480Z,1013.89
2019-03-18T10:28:49.516Z,1013.99
2019-03-18T10:29:49.477Z,1014.00
2019-03-18T10:30:49.480Z,1014.05
2019-03-18T10:31:49.439Z,1014.02
2019-03-18T10:32:49.430Z,1014.03
2019-03-18T10:33:49.408Z,1014.04
2019-03-18T10:34:49.489Z,1014.08
2019-03-18T10:35:49.400Z,1014.17
2019-03-18T10:36:49.513Z,1014.21
2019-03-18T10:37:49.362Z,1014.18
2019-03-18T10:38:49.392Z,1014.23
2019-03-18T10:39:49.420Z,1014.21
2019-03-18T10:40:49.333Z,1014.24
2019-03-18T10:41:49.323Z,1014.19
2019-03-18T10:42:49.324Z,1014.32
2019-03-18T10:43:49.298Z,1014.27
2019-03-18T10:44:49.290Z,1014.29
2019-03-18T10:45:49.360Z,1014.36
2019-03-18T10:46:49.284Z,1014.37
2019-03-18T10:47:49.268Z,1014.38
2019-03-18T10:48:49.220Z,1014.34
2019-03-18T10:49:49.246Z,1014.32
2019-03-18T10:50:49.227Z,1014.36
2019-03-18T10:51:49.288Z,1014.35
2019-03-18T10:52:49.262Z,1014.29
2019-03-18T10:53:49.201Z,1014.33
2019-03-18T10:54:49.220Z,1014.32
2019-03-18T10:55:49.240Z,1014.36
2019-03-18T10:56:49.162Z,1014.27
2019-03-18T10:57:49.142Z,1014.33
2019-03-18T10:58:49.134Z,1014.27
2019-03-18T10:59:49.127Z,1014.32
2019-03-18T11:00:49.173Z,1014.35
2019-03-18T11:01:49.083Z,1014.30
2019-03-18T11:02:49.123Z,1014.29
2019-03-18T11:03:49.110Z,1014.35
2019-03-18T11:04:49.068Z,1014.37
2019-03-18T11:05:49.057Z,1014.37
2019-03-18T11:06:49.133Z,1014.39
2019-03-18T11:07:51.656Z,1014.31
2019-03-18T11:08:49.039Z,1014.33
2019-03-18T11:09:48.986Z,1014.31
2019-03-18T11:10:49.046Z,1014.41
2019-03-18T11:11:48.981Z,1014.32
2019-03-18T11:12:48.996Z,1014.37
2019-03-18T11:13:48.961Z,1014.38
2019-03-18T11:14:48.957Z,1014.44
2019-03-18T11:15:48.926Z,1014.42
2019-03-18T11:16:49.192Z,1014.37
2019-03-18T11:17:48.920Z,1014.31
2019-03-18T11:18:48.892Z,1014.37
2019-03-18T11:19:57.802Z,1014.41
2019-03-18T11:20:49.984Z,1014.45
2019-03-18T11:21:48.875Z,1014.39
2019-03-18T11:22:48.865Z,1014.40
2019-03-18T11:23:48.930Z,1014.34
2019-03-18T11:24:48.914Z,1014.37
2019-03-18T11:25:48.835Z,1014.40
2019-03-18T11:26:48.847Z,1014.43
2019-03-18T11:27:48.824Z,1014.46
2019-03-18T11:28:48.962Z,1014.47
2019-03-18T11:29:48.786Z,1014.37
2019-03-18T11:30:48.760Z,1014.42
2019-03-18T11:31:48.769Z,1014.46
2019-03-18T11:32:48.914Z,1014.45
2019-03-18T11:33:48.743Z,1014.55
2019-03-18T11:34:48.754Z,1014.56
2019-03-18T11:35:48.806Z,1014.46
2019-03-18T11:36:48.720Z,1014.48
2019-03-18T11:37:48.715Z,1014.45
2019-03-18T11:38:48.688Z,1014.50
2019-03-18T11:39:48.665Z,1014.47
2019-03-18T11:40:48.659Z,1014.52
2019-03-18T11:41:48.708Z,1014.43
2019-03-18T11:42:48.673Z,1014.53
2019-03-18T11:43:48.625Z,1014.51
2019-03-18T11:44:48.673Z,1014.45
2019-03-18T11:45:48.616Z,1014.49
2019-03-18T11:46:48.629Z,1014.48
2019-03-18T11:47:48.585Z,1014.50
2019-03-18T11:48:48.769Z,1014.50
2019-03-18T11:49:48.557Z,1014.48
2019-03-18T11:50:48.543Z,1014.54
2019-03-18T11:51:48.519Z,1014.50
2019-03-18T11:52:48.517Z,1014.35
2019-03-18T11:53:48.521Z,1014.46
2019-03-18T11:54:48.555Z,1014.47
2019-03-18T11:55:48.474Z,1014.52
2019-03-18T11:56:48.517Z,1014.53
2019-03-18T11:57:48.484Z,1014.57
2019-03-18T11:58:48.519Z,1014.49
2019-03-18T11:59:48.544Z,1014.55
2019-03-18T12:00:48.455Z,1014.50
2019-03-18T12:01:48.417Z,1014.52
2019-03-18T12:02:48.401Z,1014.55
2019-03-18T12:03:48.452Z,1014.57
2019-03-18T12:04:48.380Z,1014.63
2019-03-18T12:05:48.380Z,1014.44